createdAt,value
2022-12-29T00:02:21.065Z,101982.00
2022-12-29T00:04:55.161Z,101978.00
2022-12-29T00:07:28.056Z,101969.00
2022-12-29T00:10:00.909Z,101975.00
2022-12-29T00:12:35.117Z,101974.00
2022-12-29T00:15:26.240Z,101967.00
2022-12-29T00:17:59.183Z,101966.00
2022-12-29T00:20:52.492Z,101972.00
2022-12-29T00:23:42.975Z,101970.00
2022-12-29T00:26:34.796Z,101964.00
2022-12-29T00:29:25.145Z,101954.00
2022-12-29T00:32:15.204Z,101948.00
2022-12-29T00:35:05.491Z,101953.00
2022-12-29T00:37:55.592Z,101947.00
2022-12-29T00:40:45.847Z,101943.00
2022-12-29T00:43:36.391Z,101937.00
2022-12-29T00:46:12.852Z,101930.00
2022-12-29T00:49:03.204Z,101937.00
2022-12-29T00:51:36.379Z,101930.00
2022-12-29T00:54:09.370Z,101931.00
2022-12-29T00:56:42.191Z,101921.00
2022-12-29T00:59:15.904Z,101922.00
2022-12-29T01:01:50.763Z,101923.00
2022-12-29T01:04:25.121Z,101919.00
2022-12-29T01:06:58.255Z,101912.00
2022-12-29T01:09:48.202Z,101907.00
2022-12-29T01:12:22.399Z,101902.00
2022-12-29T01:14:55.481Z,101902.00
2022-12-29T01:17:28.945Z,101900.00
2022-12-29T01:20:01.965Z,101895.00
2022-12-29T01:22:34.895Z,101903.00
2022-12-29T01:25:07.981Z,101894.00
2022-12-29T01:27:40.920Z,101881.00
2022-12-29T01:30:14.730Z,101881.00
2022-12-29T01:32:49.922Z,101880.00
2022-12-29T01:35:22.755Z,101877.00
2022-12-29T01:37:55.753Z,101875.00
2022-12-29T01:40:28.807Z,101875.00
2022-12-29T01:43:01.716Z,101882.00
2022-12-29T01:45:34.600Z,101881.00
2022-12-29T01:48:15.724Z,101886.00
2022-12-29T01:50:53.391Z,101875.00
2022-12-29T01:53:31.196Z,101871.00
2022-12-29T01:56:06.244Z,101874.00
2022-12-29T01:58:40.781Z,101864.00
2022-12-29T02:01:13.974Z,101862.00
2022-12-29T02:03:47.172Z,101865.00
2022-12-29T02:06:24.876Z,101858.00
2022-12-29T02:08:59.598Z,101864.00
2022-12-29T02:11:34.376Z,101854.00
2022-12-29T02:14:08.156Z,101861.00
2022-12-29T02:16:58.797Z,101860.00
2022-12-29T02:19:42.825Z,101852.00
2022-12-29T02:22:29.695Z,101852.00
2022-12-29T02:25:31.910Z,101842.00
2022-12-29T02:28:35.749Z,101841.00
2022-12-29T02:31:26.028Z,101841.00
2022-12-29T02:34:03.773Z,101839.00
2022-12-29T02:36:43.991Z,101833.00
2022-12-29T02:39:23.808Z,101832.00
2022-12-29T02:42:04.000Z,101829.00
2022-12-29T02:45:11.070Z,101837.00
2022-12-29T02:47:58.140Z,101828.00
2022-12-29T02:50:45.093Z,101828.00
2022-12-29T02:53:19.986Z,101823.00
2022-12-29T02:55:56.116Z,101822.00
2022-12-29T02:58:29.423Z,101820.00
2022-12-29T03:01:20.966Z,101820.00
2022-12-29T03:04:13.788Z,101813.00
2022-12-29T03:06:58.368Z,101807.00
2022-12-29T03:09:41.714Z,101807.00
2022-12-29T03:12:54.484Z,101807.00
2022-12-29T03:15:51.639Z,101812.00
2022-12-29T03:18:26.491Z,101793.00
2022-12-29T03:21:01.416Z,101797.00
2022-12-29T03:23:35.931Z,101791.00
2022-12-29T03:26:11.008Z,101798.00
2022-12-29T03:28:48.915Z,101803.00
2022-12-29T03:31:22.242Z,101792.00
2022-12-29T03:33:56.118Z,101794.00
2022-12-29T03:36:36.732Z,101785.00
2022-12-29T03:39:17.971Z,101778.00
2022-12-29T03:41:52.994Z,101778.00
2022-12-29T03:44:25.813Z,101778.00
2022-12-29T03:46:58.623Z,101776.00
2022-12-29T03:49:31.435Z,101775.00
2022-12-29T03:52:04.069Z,101776.00
2022-12-29T03:54:37.499Z,101772.00
2022-12-29T03:57:10.128Z,101764.00
2022-12-29T03:59:42.896Z,101771.00
2022-12-29T04:02:16.126Z,101778.00
2022-12-29T04:04:49.317Z,101765.00
2022-12-29T04:07:22.248Z,101774.00
2022-12-29T04:09:55.571Z,101759.00
2022-12-29T04:12:28.541Z,101761.00
2022-12-29T04:15:01.256Z,101763.00
2022-12-29T04:17:33.930Z,101756.00
2022-12-29T04:20:23.919Z,101760.00
2022-12-29T04:23:07.717Z,101759.00
2022-12-29T04:25:40.581Z,101749.00
2022-12-29T04:28:13.463Z,101748.00
2022-12-29T04:30:48.582Z,101749.00
2022-12-29T04:33:21.413Z,101742.00
2022-12-29T04:35:55.385Z,101743.00
2022-12-29T04:38:28.870Z,101747.00
2022-12-29T04:41:03.187Z,101744.00
2022-12-29T04:43:35.998Z,101746.00
2022-12-29T04:46:08.962Z,101737.00
2022-12-29T04:48:41.745Z,101737.00
2022-12-29T04:51:14.548Z,101728.00
2022-12-29T04:53:47.368Z,101726.00
2022-12-29T04:56:20.290Z,101729.00
2022-12-29T04:58:53.181Z,101735.00
2022-12-29T05:01:26.225Z,101733.00
2022-12-29T05:03:59.263Z,101721.00
2022-12-29T05:06:32.106Z,101729.00
2022-12-29T05:09:07.999Z,101730.00
2022-12-29T05:11:40.981Z,101733.00
2022-12-29T05:14:14.231Z,101714.00
2022-12-29T05:17:05.999Z,101720.00
2022-12-29T05:19:41.050Z,101713.00
2022-12-29T05:22:14.530Z,101721.00
2022-12-29T05:24:47.640Z,101717.00
2022-12-29T05:27:20.385Z,101722.00
2022-12-29T05:29:53.282Z,101714.00
2022-12-29T05:32:26.179Z,101723.00
2022-12-29T05:34:59.091Z,101723.00
2022-12-29T05:37:32.112Z,101733.00
2022-12-29T05:40:05.873Z,101731.00
2022-12-29T05:42:38.758Z,101729.00
2022-12-29T05:45:12.970Z,101729.00
2022-12-29T05:47:45.812Z,101735.00
2022-12-29T05:50:18.828Z,101734.00
2022-12-29T05:52:51.792Z,101734.00
2022-12-29T05:55:24.806Z,101730.00
2022-12-29T05:57:57.811Z,101733.00
2022-12-29T06:00:31.148Z,101739.00
2022-12-29T06:03:04.403Z,101745.00
2022-12-29T06:05:37.207Z,101735.00
2022-12-29T06:08:10.590Z,101750.00
2022-12-29T06:10:43.512Z,101743.00
2022-12-29T06:13:16.561Z,101748.00
2022-12-29T06:15:51.452Z,101745.00
2022-12-29T06:18:24.293Z,101746.00
2022-12-29T06:20:57.852Z,101748.00
2022-12-29T06:23:30.849Z,101745.00
2022-12-29T06:26:03.697Z,101748.00
2022-12-29T06:28:38.468Z,101752.00
2022-12-29T06:31:28.852Z,101750.00
2022-12-29T06:34:08.070Z,101758.00
2022-12-29T06:36:37.263Z,101750.00
2022-12-29T06:39:10.153Z,101748.00
2022-12-29T06:41:42.826Z,101759.00
2022-12-29T06:44:15.886Z,101748.00
2022-12-29T06:46:49.369Z,101756.00
2022-12-29T06:49:22.190Z,101760.00
2022-12-29T06:51:55.028Z,101760.00
2022-12-29T06:54:27.848Z,101762.00
2022-12-29T06:57:00.790Z,101760.00
2022-12-29T06:59:34.251Z,101756.00
2022-12-29T07:02:08.493Z,101760.00
2022-12-29T07:05:00.007Z,101764.00
2022-12-29T07:07:32.947Z,101768.00
2022-12-29T07:10:06.387Z,101768.00
2022-12-29T07:12:39.271Z,101769.00
2022-12-29T07:15:12.761Z,101764.00
2022-12-29T07:17:45.662Z,101766.00
2022-12-29T07:20:21.943Z,101758.00
2022-12-29T07:22:52.563Z,101759.00
2022-12-29T07:25:25.445Z,101762.00
2022-12-29T07:27:58.342Z,101766.00
2022-12-29T07:30:31.173Z,101773.00
2022-12-29T07:33:03.867Z,101772.00
2022-12-29T07:35:37.839Z,101770.00
2022-12-29T07:38:10.595Z,101776.00
2022-12-29T07:40:43.368Z,101782.00
2022-12-29T07:43:16.246Z,101781.00
2022-12-29T07:45:49.238Z,101775.00
2022-12-29T07:48:22.347Z,101775.00
2022-12-29T07:50:55.282Z,101771.00
2022-12-29T07:53:28.108Z,101779.00
2022-12-29T07:56:01.727Z,101771.00
2022-12-29T07:58:34.589Z,101774.00
2022-12-29T08:01:08.355Z,101778.00
2022-12-29T08:03:43.237Z,101783.00
2022-12-29T08:06:16.383Z,101789.00
2022-12-29T08:08:49.676Z,101782.00
2022-12-29T08:11:22.991Z,101793.00
2022-12-29T08:13:55.884Z,101796.00
2022-12-29T08:16:28.716Z,101790.00
2022-12-29T08:19:02.164Z,101800.00
2022-12-29T08:21:39.403Z,101807.00
2022-12-29T08:24:13.321Z,101803.00
2022-12-29T08:26:46.268Z,101797.00
2022-12-29T08:29:19.766Z,101803.00
2022-12-29T08:31:52.615Z,101807.00
2022-12-29T08:34:25.481Z,101810.00
2022-12-29T08:36:58.334Z,101809.00
2022-12-29T08:39:31.502Z,101804.00
2022-12-29T08:42:04.340Z,101810.00
2022-12-29T08:44:37.233Z,101812.00
2022-12-29T08:47:10.914Z,101813.00
2022-12-29T08:49:43.827Z,101805.00
2022-12-29T08:52:16.439Z,101802.00
2022-12-29T08:54:49.192Z,101806.00
2022-12-29T08:57:21.807Z,101815.00
2022-12-29T08:59:54.791Z,101807.00
2022-12-29T09:02:27.772Z,101806.00
2022-12-29T09:05:01.783Z,101810.00
2022-12-29T09:07:35.648Z,101815.00
2022-12-29T09:10:09.330Z,101819.00
2022-12-29T09:12:42.107Z,101814.00
2022-12-29T09:15:15.748Z,101829.00
2022-12-29T09:17:49.199Z,101818.00
2022-12-29T09:20:24.130Z,101815.00
2022-12-29T09:22:57.038Z,101815.00
2022-12-29T09:25:29.755Z,101826.00
2022-12-29T09:28:02.777Z,101829.00
2022-12-29T09:30:35.575Z,101826.00
2022-12-29T09:33:08.345Z,101830.00
2022-12-29T09:35:41.302Z,101823.00
2022-12-29T09:38:14.242Z,101830.00
2022-12-29T09:40:47.981Z,101827.00
2022-12-29T09:43:28.250Z,101836.00
2022-12-29T09:46:21.091Z,101834.00
2022-12-29T09:48:55.876Z,101826.00
2022-12-29T09:51:30.181Z,101823.00
2022-12-29T09:54:05.275Z,101829.00
2022-12-29T09:56:38.205Z,101823.00
2022-12-29T09:59:25.141Z,101828.00
2022-12-29T10:02:11.901Z,101829.00
2022-12-29T10:04:46.434Z,101830.00
2022-12-29T10:07:40.461Z,101826.00
2022-12-29T10:10:18.440Z,101825.00
2022-12-29T10:12:53.441Z,101816.00
2022-12-29T10:16:03.540Z,101815.00
2022-12-29T10:19:10.147Z,101815.00
2022-12-29T10:21:59.892Z,101809.00
2022-12-29T10:24:33.800Z,101797.00
2022-12-29T10:27:08.324Z,101807.00
2022-12-29T10:29:43.366Z,101803.00
2022-12-29T10:32:18.389Z,101802.00
2022-12-29T10:34:52.999Z,101806.00
2022-12-29T10:37:34.454Z,101796.00
2022-12-29T10:40:09.012Z,101802.00
2022-12-29T10:42:48.067Z,101791.00
2022-12-29T10:45:22.487Z,101795.00
2022-12-29T10:48:00.471Z,101789.00
2022-12-29T10:50:33.627Z,101789.00
2022-12-29T10:53:08.328Z,101787.00
2022-12-29T10:55:42.505Z,101780.00
2022-12-29T10:58:17.424Z,101784.00
2022-12-29T11:00:57.478Z,101771.00
2022-12-29T11:03:44.778Z,101771.00
2022-12-29T11:06:32.549Z,101772.00
2022-12-29T11:09:16.394Z,101781.00
2022-12-29T11:11:50.021Z,101770.00
2022-12-29T11:14:27.456Z,101762.00
2022-12-29T11:17:08.232Z,101772.00
2022-12-29T11:19:41.373Z,101773.00
2022-12-29T11:22:27.943Z,101781.00
2022-12-29T11:25:02.464Z,101773.00
2022-12-29T11:27:35.861Z,101774.00
2022-12-29T11:30:12.134Z,101773.00
2022-12-29T11:32:47.302Z,101771.00
2022-12-29T11:35:31.263Z,101774.00
2022-12-29T11:38:05.708Z,101767.00
2022-12-29T11:40:40.518Z,101782.00
2022-12-29T11:43:15.337Z,101779.00
2022-12-29T11:45:50.402Z,101766.00
2022-12-29T11:48:25.207Z,101771.00
2022-12-29T11:50:59.102Z,101770.00
2022-12-29T11:53:45.203Z,101761.00
2022-12-29T11:56:23.102Z,101759.00
2022-12-29T11:58:56.468Z,101755.00
2022-12-29T12:01:40.401Z,101757.00
2022-12-29T12:04:18.608Z,101748.00
2022-12-29T12:07:02.315Z,101750.00
2022-12-29T12:09:43.041Z,101731.00
2022-12-29T12:12:17.998Z,101737.00
2022-12-29T12:14:59.647Z,101733.00
2022-12-29T12:17:38.443Z,101729.00
2022-12-29T12:20:28.068Z,101731.00
2022-12-29T12:23:09.302Z,101731.00
2022-12-29T12:25:43.800Z,101728.00
2022-12-29T12:28:25.066Z,101725.00
2022-12-29T12:30:59.722Z,101725.00
2022-12-29T12:33:34.915Z,101714.00
2022-12-29T12:36:33.368Z,101728.00
2022-12-29T12:39:16.980Z,101723.00
2022-12-29T12:42:23.328Z,101726.00
2022-12-29T12:44:59.210Z,101719.00
2022-12-29T12:47:51.791Z,101710.00
2022-12-29T12:50:35.945Z,101706.00
2022-12-29T12:53:22.982Z,101700.00
2022-12-29T12:56:15.968Z,101704.00
2022-12-29T12:58:56.441Z,101706.00
2022-12-29T13:01:40.733Z,101696.00
2022-12-29T13:04:24.241Z,101684.00
2022-12-29T13:07:05.212Z,101684.00
2022-12-29T13:09:59.696Z,101682.00
2022-12-29T13:12:53.807Z,101687.00
2022-12-29T13:15:28.813Z,101682.00
2022-12-29T13:18:03.888Z,101684.00
2022-12-29T13:20:53.222Z,101680.00
2022-12-29T13:23:50.820Z,101674.00
2022-12-29T13:26:50.062Z,101679.00
2022-12-29T13:29:33.833Z,101676.00
2022-12-29T13:32:20.082Z,101676.00
2022-12-29T13:35:06.868Z,101672.00
2022-12-29T13:37:42.001Z,101667.00
2022-12-29T13:40:23.998Z,101666.00
2022-12-29T13:42:58.640Z,101666.00
2022-12-29T13:45:34.071Z,101672.00
2022-12-29T13:48:18.187Z,101667.00
2022-12-29T13:50:59.233Z,101663.00
2022-12-29T13:53:40.068Z,101659.00
2022-12-29T13:56:17.477Z,101653.00
2022-12-29T13:58:58.240Z,101647.00
2022-12-29T14:02:06.958Z,101638.00
2022-12-29T14:04:42.240Z,101645.00
2022-12-29T14:07:21.895Z,101640.00
2022-12-29T14:09:56.391Z,101646.00
2022-12-29T14:12:43.710Z,101641.00
2022-12-29T14:15:22.021Z,101640.00
2022-12-29T14:18:08.654Z,101638.00
2022-12-29T14:20:42.569Z,101638.00
2022-12-29T14:23:17.403Z,101639.00
2022-12-29T14:26:11.424Z,101639.00
2022-12-29T14:28:49.223Z,101633.00
2022-12-29T14:31:24.582Z,101630.00
2022-12-29T14:34:17.402Z,101623.00
2022-12-29T14:37:02.002Z,101627.00
2022-12-29T14:39:48.770Z,101620.00
2022-12-29T14:42:24.803Z,101624.00
2022-12-29T14:44:59.948Z,101618.00
2022-12-29T14:47:40.855Z,101612.00
2022-12-29T14:50:22.018Z,101603.00
2022-12-29T14:53:03.140Z,101605.00
2022-12-29T14:55:54.029Z,101598.00
2022-12-29T14:58:34.766Z,101605.00
2022-12-29T15:01:07.856Z,101606.00
2022-12-29T15:03:45.774Z,101601.00
2022-12-29T15:06:20.797Z,101597.00
2022-12-29T15:08:58.465Z,101591.00
2022-12-29T15:11:46.259Z,101601.00
2022-12-29T15:14:37.086Z,101600.00
2022-12-29T15:17:32.853Z,101597.00
2022-12-29T15:20:07.560Z,101598.00
2022-12-29T15:22:41.781Z,101592.00
2022-12-29T15:25:19.967Z,101598.00
2022-12-29T15:27:57.709Z,101595.00
2022-12-29T15:30:30.587Z,101606.00
2022-12-29T15:33:03.464Z,101599.00
2022-12-29T15:35:38.496Z,101591.00
2022-12-29T15:38:28.128Z,101593.00
2022-12-29T15:41:04.740Z,101589.00
2022-12-29T15:43:44.867Z,101587.00
2022-12-29T15:46:14.918Z,101591.00
2022-12-29T15:48:48.031Z,101594.00
2022-12-29T15:51:31.540Z,101598.00
2022-12-29T15:54:04.536Z,101596.00
2022-12-29T15:56:38.294Z,101597.00
2022-12-29T15:59:12.079Z,101586.00
2022-12-29T16:01:46.567Z,101595.00
2022-12-29T16:04:19.999Z,101590.00
2022-12-29T16:07:09.456Z,101587.00
2022-12-29T16:09:49.099Z,101588.00
2022-12-29T16:12:23.706Z,101579.00
2022-12-29T16:15:11.278Z,101592.00
2022-12-29T16:17:53.543Z,101581.00
2022-12-29T16:20:45.845Z,101583.00
2022-12-29T16:23:26.831Z,101579.00
2022-12-29T16:26:00.703Z,101584.00
2022-12-29T16:28:41.191Z,101577.00
2022-12-29T16:31:24.660Z,101575.00
2022-12-29T16:34:01.173Z,101578.00
2022-12-29T16:36:36.066Z,101573.00
2022-12-29T16:39:31.875Z,101582.00
2022-12-29T16:42:05.020Z,101583.00
2022-12-29T16:44:37.868Z,101577.00
2022-12-29T16:47:19.203Z,101577.00
2022-12-29T16:49:56.841Z,101584.00
2022-12-29T16:52:31.373Z,101586.00
2022-12-29T16:55:05.407Z,101585.00
2022-12-29T16:57:40.243Z,101590.00
2022-12-29T17:00:15.116Z,101592.00
2022-12-29T17:02:48.327Z,101589.00
2022-12-29T17:05:22.573Z,101595.00
2022-12-29T17:07:55.821Z,101603.00
2022-12-29T17:10:29.841Z,101599.00
2022-12-29T17:13:02.942Z,101602.00
2022-12-29T17:15:37.018Z,101600.00
2022-12-29T17:18:14.202Z,101604.00
2022-12-29T17:20:46.343Z,101596.00
2022-12-29T17:23:37.145Z,101590.00
2022-12-29T17:26:11.746Z,101595.00
2022-12-29T17:28:44.815Z,101591.00
2022-12-29T17:31:18.037Z,101592.00
2022-12-29T17:33:51.229Z,101597.00
2022-12-29T17:36:24.656Z,101596.00
2022-12-29T17:38:57.717Z,101600.00
2022-12-29T17:41:30.737Z,101594.00
2022-12-29T17:44:05.210Z,101591.00
2022-12-29T17:46:38.824Z,101599.00
2022-12-29T17:49:29.651Z,101598.00
2022-12-29T17:52:02.780Z,101601.00
2022-12-29T17:54:35.786Z,101607.00
2022-12-29T17:57:08.973Z,101604.00
2022-12-29T17:59:43.436Z,101605.00
2022-12-29T18:02:33.133Z,101612.00
2022-12-29T18:05:06.389Z,101621.00
2022-12-29T18:07:39.463Z,101618.00
2022-12-29T18:10:12.794Z,101605.00
2022-12-29T18:12:47.844Z,101619.00
2022-12-29T18:15:26.393Z,101617.00
2022-12-29T18:18:07.577Z,101615.00
2022-12-29T18:20:40.657Z,101606.00
2022-12-29T18:23:15.519Z,101603.00
2022-12-29T18:25:50.061Z,101602.00
2022-12-29T18:28:22.897Z,101602.00
2022-12-29T18:30:55.965Z,101606.00
2022-12-29T18:33:28.588Z,101604.00
2022-12-29T18:36:06.235Z,101614.00
2022-12-29T18:38:38.977Z,101619.00
2022-12-29T18:41:22.664Z,101621.00
2022-12-29T18:43:55.683Z,101624.00
2022-12-29T18:46:28.747Z,101624.00
2022-12-29T18:49:01.793Z,101621.00
2022-12-29T18:51:34.785Z,101618.00
2022-12-29T18:54:07.863Z,101614.00
2022-12-29T18:56:40.680Z,101620.00
2022-12-29T18:59:13.716Z,101608.00
2022-12-29T19:01:46.822Z,101619.00
2022-12-29T19:04:19.702Z,101608.00
2022-12-29T19:06:53.223Z,101617.00
2022-12-29T19:09:27.296Z,101625.00
2022-12-29T19:12:00.243Z,101619.00
2022-12-29T19:14:33.119Z,101621.00
2022-12-29T19:17:06.522Z,101623.00
2022-12-29T19:19:40.065Z,101624.00
2022-12-29T19:22:13.108Z,101628.00
2022-12-29T19:24:45.937Z,101635.00
2022-12-29T19:27:18.937Z,101628.00
2022-12-29T19:29:51.974Z,101631.00
2022-12-29T19:32:25.049Z,101632.00
2022-12-29T19:35:00.133Z,101634.00
2022-12-29T19:37:33.190Z,101631.00
2022-12-29T19:40:06.462Z,101628.00
2022-12-29T19:42:39.487Z,101632.00
2022-12-29T19:45:14.041Z,101627.00
2022-12-29T19:47:47.332Z,101631.00
2022-12-29T19:50:21.118Z,101637.00
2022-12-29T19:53:04.509Z,101628.00
2022-12-29T19:55:29.502Z,101630.00
2022-12-29T19:58:02.251Z,101624.00
2022-12-29T20:00:35.211Z,101629.00
2022-12-29T20:03:08.105Z,101624.00
2022-12-29T20:05:41.105Z,101632.00
2022-12-29T20:08:13.752Z,101630.00
2022-12-29T20:10:47.377Z,101627.00
2022-12-29T20:13:20.235Z,101627.00
2022-12-29T20:15:53.011Z,101627.00
2022-12-29T20:18:29.090Z,101624.00
2022-12-29T20:21:04.511Z,101624.00
2022-12-29T20:23:38.213Z,101623.00
2022-12-29T20:26:15.100Z,101619.00
2022-12-29T20:28:49.403Z,101608.00
2022-12-29T20:31:30.392Z,101616.00
2022-12-29T20:34:03.547Z,101607.00
2022-12-29T20:36:38.251Z,101618.00
2022-12-29T20:39:13.240Z,101612.00
2022-12-29T20:41:46.248Z,101614.00
2022-12-29T20:44:19.058Z,101603.00
2022-12-29T20:46:52.002Z,101609.00
2022-12-29T20:49:25.062Z,101601.00
2022-12-29T20:52:06.708Z,101599.00
2022-12-29T20:54:35.549Z,101595.00
2022-12-29T20:57:06.143Z,101594.00
2022-12-29T20:59:38.996Z,101585.00
2022-12-29T21:02:13.029Z,101582.00
2022-12-29T21:05:22.163Z,101583.00
2022-12-29T21:07:20.508Z,101589.00
2022-12-29T21:09:53.564Z,101584.00
2022-12-29T21:12:26.411Z,101588.00
2022-12-29T21:14:59.262Z,101572.00
2022-12-29T21:17:32.265Z,101571.00
2022-12-29T21:20:05.819Z,101569.00
2022-12-29T21:22:38.541Z,101559.00
2022-12-29T21:25:12.040Z,101570.00
2022-12-29T21:27:46.257Z,101564.00
2022-12-29T21:30:19.195Z,101575.00
2022-12-29T21:32:52.150Z,101572.00
2022-12-29T21:35:24.894Z,101565.00
2022-12-29T21:37:57.759Z,101566.00
2022-12-29T21:40:30.490Z,101563.00
2022-12-29T21:43:03.772Z,101569.00
2022-12-29T21:45:36.911Z,101564.00
2022-12-29T21:48:29.664Z,101563.00
2022-12-29T21:51:25.369Z,101559.00
2022-12-29T21:54:04.845Z,101561.00
2022-12-29T21:56:37.662Z,101563.00
2022-12-29T21:59:29.561Z,101561.00
2022-12-29T22:02:20.372Z,101555.00
2022-12-29T22:05:11.221Z,101556.00
2022-12-29T22:08:01.294Z,101554.00
2022-12-29T22:10:51.245Z,101553.00
2022-12-29T22:13:24.130Z,101556.00
2022-12-29T22:15:57.289Z,101548.00
2022-12-29T22:18:31.251Z,101552.00
2022-12-29T22:21:05.806Z,101544.00
2022-12-29T22:23:39.832Z,101546.00
2022-12-29T22:26:14.255Z,101542.00
2022-12-29T22:28:49.455Z,101541.00
2022-12-29T22:31:28.416Z,101540.00
2022-12-29T22:34:02.109Z,101545.00
2022-12-29T22:36:35.403Z,101539.00
2022-12-29T22:39:08.432Z,101541.00
2022-12-29T22:41:41.462Z,101544.00
2022-12-29T22:44:14.350Z,101542.00
2022-12-29T22:46:47.375Z,101542.00
2022-12-29T22:49:20.212Z,101541.00
2022-12-29T22:51:53.164Z,101533.00
2022-12-29T22:54:30.393Z,101535.00
2022-12-29T22:57:03.455Z,101521.00
2022-12-29T22:59:36.645Z,101516.00
2022-12-29T23:02:09.656Z,101515.00
2022-12-29T23:07:16.725Z,101511.00
2022-12-29T23:09:49.601Z,101509.00
2022-12-29T23:12:22.652Z,101514.00
2022-12-29T23:14:55.566Z,101520.00
2022-12-29T23:17:28.319Z,101514.00
2022-12-29T23:20:01.129Z,101511.00
2022-12-29T23:22:34.398Z,101505.00
2022-12-29T23:25:07.719Z,101494.00
2022-12-29T23:27:40.364Z,101500.00
2022-12-29T23:30:13.912Z,101494.00
2022-12-29T23:32:46.964Z,101504.00
2022-12-29T23:35:19.972Z,101494.00
2022-12-29T23:37:53.520Z,101498.00
2022-12-29T23:40:26.549Z,101507.00
2022-12-29T23:43:03.085Z,101511.00
2022-12-29T23:45:37.318Z,101499.00
2022-12-29T23:48:10.479Z,101502.00
2022-12-29T23:50:44.836Z,101498.00
2022-12-29T23:53:17.616Z,101497.00
2022-12-29T23:55:52.727Z,101494.00
2022-12-29T23:58:26.167Z,101496.00
